createdAt,value
2019-02-21T20:33:06.077Z,63.97
2019-02-21T20:35:34.308Z,60.47
2019-02-21T20:38:01.522Z,61.59
2019-02-21T20:40:28.462Z,61.51
2019-02-21T20:42:55.304Z,61.62
2019-02-21T20:45:24.599Z,61.75
2019-02-21T20:47:52.775Z,61.47
2019-02-21T20:50:19.685Z,61.47
2019-02-21T20:52:46.683Z,61.81
2019-02-21T20:55:14.130Z,61.68
2019-02-21T20:57:41.353Z,61.66
2019-02-21T21:00:17.507Z,61.46
2019-02-21T21:02:44.522Z,61.68
2019-02-21T21:05:11.379Z,61.74
2019-02-21T21:07:38.395Z,63.46
2019-02-21T21:10:15.336Z,62.88
2019-02-21T21:12:42.157Z,63.45
2019-02-21T21:15:11.368Z,63.42
2019-02-21T21:17:38.230Z,62.56
2019-02-21T21:20:16.630Z,63.04
2019-02-21T21:22:40.166Z,63.36
2019-02-21T21:25:11.654Z,64.02
2019-02-21T21:27:38.442Z,63.14
2019-02-21T21:30:09.945Z,62.80
2019-02-21T21:32:37.674Z,62.62
2019-02-21T21:35:05.364Z,63.41
2019-02-21T21:37:32.478Z,63.92
2019-02-21T21:39:59.448Z,64.89
2019-02-21T21:42:26.461Z,64.08
2019-02-21T21:44:53.619Z,63.97
2019-02-21T21:47:20.516Z,63.48
2019-02-21T21:49:47.303Z,63.52
2019-02-21T21:52:16.260Z,63.36
2019-02-21T21:54:43.191Z,63.17
2019-02-21T21:57:10.252Z,63.76
2019-02-21T21:59:37.491Z,63.93
2019-02-21T22:02:06.353Z,63.91
2019-02-21T22:04:33.128Z,64.23
2019-02-21T22:07:00.041Z,63.60
2019-02-21T22:09:26.862Z,63.79
2019-02-21T22:11:54.057Z,63.82
2019-02-21T22:14:20.946Z,64.14
2019-02-21T22:16:48.431Z,64.18
2019-02-21T22:19:15.209Z,64.31
2019-02-21T22:21:42.418Z,64.52
2019-02-21T22:24:09.621Z,64.75
2019-02-21T22:26:36.495Z,65.01
2019-02-21T22:29:03.273Z,64.85
2019-02-21T22:31:30.566Z,64.91
2019-02-21T22:33:57.536Z,64.70
2019-02-21T22:36:24.963Z,64.46
2019-02-21T22:38:52.602Z,64.16
2019-02-21T22:41:21.654Z,64.12
2019-02-21T22:43:48.572Z,64.07
2019-02-21T22:46:15.452Z,63.84
2019-02-21T22:48:47.250Z,63.73
2019-02-21T22:51:12.989Z,63.53
2019-02-21T22:53:40.382Z,63.98
2019-02-21T22:56:07.389Z,64.37
2019-02-21T22:58:44.470Z,63.94
2019-02-21T23:01:23.258Z,63.94
2019-02-21T23:03:56.074Z,64.03
2019-02-21T23:06:39.175Z,63.97
2019-02-21T23:09:08.865Z,66.28
2019-02-21T23:11:35.808Z,63.77
2019-02-21T23:14:02.897Z,63.91
2019-02-21T23:16:30.003Z,63.68
2019-02-21T23:18:57.689Z,64.00
2019-02-21T23:21:24.895Z,63.80
2019-02-21T23:23:52.007Z,63.99
2019-02-21T23:26:18.853Z,64.05
2019-02-21T23:28:45.789Z,63.83
2019-02-21T23:31:12.797Z,63.57
2019-02-21T23:33:41.995Z,63.74
2019-02-21T23:36:09.192Z,63.75
2019-02-21T23:38:36.245Z,63.63
2019-02-21T23:41:03.672Z,63.56
2019-02-21T23:43:30.554Z,63.38
2019-02-21T23:45:57.996Z,63.31
2019-02-21T23:48:25.459Z,63.17
2019-02-21T23:50:53.061Z,63.10
2019-02-21T23:53:20.261Z,63.30
2019-02-21T23:55:47.176Z,63.46
2019-02-21T23:58:16.304Z,63.88
